Laquey, Missouri
Current Conditions -  °F | °C
As of 7:58 PM on Thursday 20 Nov 2014 (Local Time) from KTBN Reporting Station
Clear Clear  
Wind Chill: 30°   Ceiling: Unl
Heat Index: 34°   Visibility: 10mi
Dew Point: 22°   Wind: 5mph
Humidity: 62%   Direction: 30°NNE
Pressure: 30.23"   Gusts: NA
Location:  37.77°N, 92.3°W
Report Text: KTBN 210158Z AUTO 03004KT 10SM CLR 01/M05 A3023 RMK AO2 SLP253 T00121053
Loading
Personal Weather Stations






























Interactive Weather Map New forecast layout! Learn more

10-Day Weather Forecast

Advertisements
Track Severe Weather on mobile